sensor_id;sensor_type;location;lat;lon;timestamp;temperature;humidity
12911;DHT22;6523;49.758;6.120;2023-01-15T00:01:46;7.50;99.90
12911;DHT22;6523;49.758;6.120;2023-01-15T00:04:12;7.40;99.90
12911;DHT22;6523;49.758;6.120;2023-01-15T00:06:40;7.40;99.90
12911;DHT22;6523;49.758;6.120;2023-01-15T00:09:08;7.40;99.90
12911;DHT22;6523;49.758;6.120;2023-01-15T00:11:33;7.40;99.90
12911;DHT22;6523;49.758;6.120;2023-01-15T00:13:59;7.30;99.90
12911;DHT22;6523;49.758;6.120;2023-01-15T00:16:26;7.20;99.90
12911;DHT22;6523;49.758;6.120;2023-01-15T00:18:57;7.20;99.90
12911;DHT22;6523;49.758;6.120;2023-01-15T00:21:25;7.10;99.90
12911;DHT22;6523;49.758;6.120;2023-01-15T00:23:51;7.10;99.90
12911;DHT22;6523;49.758;6.120;2023-01-15T00:26:36;7.00;99.90
12911;DHT22;6523;49.758;6.120;2023-01-15T00:29:21;7.00;99.90
12911;DHT22;6523;49.758;6.120;2023-01-15T00:31:55;7.00;99.90
12911;DHT22;6523;49.758;6.120;2023-01-15T00:34:22;7.00;99.90
12911;DHT22;6523;49.758;6.120;2023-01-15T00:36:47;6.90;99.90
12911;DHT22;6523;49.758;6.120;2023-01-15T00:39:13;6.90;99.90
12911;DHT22;6523;49.758;6.120;2023-01-15T00:41:39;6.80;99.90
12911;DHT22;6523;49.758;6.120;2023-01-15T00:44:04;6.80;99.90
12911;DHT22;6523;49.758;6.120;2023-01-15T00:46:30;6.70;99.90
12911;DHT22;6523;49.758;6.120;2023-01-15T00:48:55;6.70;99.90
12911;DHT22;6523;49.758;6.120;2023-01-15T00:51:21;6.60;99.90
12911;DHT22;6523;49.758;6.120;2023-01-15T00:53:46;6.60;99.90
12911;DHT22;6523;49.758;6.120;2023-01-15T00:56:12;6.60;99.90
12911;DHT22;6523;49.758;6.120;2023-01-15T00:58:37;6.50;99.90
12911;DHT22;6523;49.758;6.120;2023-01-15T01:01:03;6.50;99.90
12911;DHT22;6523;49.758;6.120;2023-01-15T01:03:29;6.50;99.90
12911;DHT22;6523;49.758;6.120;2023-01-15T01:06:01;6.40;99.90
12911;DHT22;6523;49.758;6.120;2023-01-15T01:08:27;6.40;99.90
12911;DHT22;6523;49.758;6.120;2023-01-15T01:11:08;6.40;99.90
12911;DHT22;6523;49.758;6.120;2023-01-15T01:13:34;6.30;99.90
12911;DHT22;6523;49.758;6.120;2023-01-15T01:16:00;6.30;99.90
12911;DHT22;6523;49.758;6.120;2023-01-15T01:18:26;6.20;99.90
12911;DHT22;6523;49.758;6.120;2023-01-15T01:20:51;6.20;99.90
12911;DHT22;6523;49.758;6.120;2023-01-15T01:23:17;6.20;99.90
12911;DHT22;6523;49.758;6.120;2023-01-15T01:25:43;6.10;99.90
12911;DHT22;6523;49.758;6.120;2023-01-15T01:28:09;6.10;99.90
12911;DHT22;6523;49.758;6.120;2023-01-15T01:30:36;6.10;99.90
12911;DHT22;6523;49.758;6.120;2023-01-15T01:33:02;5.90;99.90
12911;DHT22;6523;49.758;6.120;2023-01-15T01:35:28;6.00;99.90
12911;DHT22;6523;49.758;6.120;2023-01-15T01:37:53;6.00;99.90
12911;DHT22;6523;49.758;6.120;2023-01-15T01:40:19;5.90;99.90
12911;DHT22;6523;49.758;6.120;2023-01-15T01:42:44;5.90;99.90
12911;DHT22;6523;49.758;6.120;2023-01-15T01:45:26;5.90;99.90
12911;DHT22;6523;49.758;6.120;2023-01-15T01:47:58;5.90;99.90
12911;DHT22;6523;49.758;6.120;2023-01-15T01:50:26;5.90;99.90
12911;DHT22;6523;49.758;6.120;2023-01-15T01:52:59;6.00;99.90
12911;DHT22;6523;49.758;6.120;2023-01-15T01:55:25;5.90;99.90
12911;DHT22;6523;49.758;6.120;2023-01-15T01:57:54;5.80;99.90
12911;DHT22;6523;49.758;6.120;2023-01-15T02:00:21;5.80;99.90
12911;DHT22;6523;49.758;6.120;2023-01-15T02:02:48;5.90;99.90
12911;DHT22;6523;49.758;6.120;2023-01-15T02:05:26;5.80;99.90
12911;DHT22;6523;49.758;6.120;2023-01-15T02:07:54;5.80;99.90
12911;DHT22;6523;49.758;6.120;2023-01-15T02:10:19;5.70;99.90
12911;DHT22;6523;49.758;6.120;2023-01-15T02:12:51;5.80;99.90
12911;DHT22;6523;49.758;6.120;2023-01-15T02:15:28;5.90;99.90
12911;DHT22;6523;49.758;6.120;2023-01-15T02:18:15;5.90;99.90
12911;DHT22;6523;49.758;6.120;2023-01-15T02:20:54;5.80;99.90
12911;DHT22;6523;49.758;6.120;2023-01-15T02:23:59;5.80;99.90
12911;DHT22;6523;49.758;6.120;2023-01-15T02:26:56;5.90;99.90
12911;DHT22;6523;49.758;6.120;2023-01-15T02:29:48;5.70;99.90
12911;DHT22;6523;49.758;6.120;2023-01-15T02:33:04;5.80;99.90
12911;DHT22;6523;49.758;6.120;2023-01-15T02:35:17;5.80;99.90
12911;DHT22;6523;49.758;6.120;2023-01-15T02:37:51;5.80;99.90
12911;DHT22;6523;49.758;6.120;2023-01-15T02:40:20;5.80;99.90
12911;DHT22;6523;49.758;6.120;2023-01-15T02:42:48;5.80;99.90
12911;DHT22;6523;49.758;6.120;2023-01-15T02:45:21;5.80;99.90
12911;DHT22;6523;49.758;6.120;2023-01-15T02:47:52;5.80;99.90
12911;DHT22;6523;49.758;6.120;2023-01-15T02:50:22;5.80;99.90
12911;DHT22;6523;49.758;6.120;2023-01-15T02:52:52;5.70;99.90
12911;DHT22;6523;49.758;6.120;2023-01-15T02:55:23;5.70;99.90
12911;DHT22;6523;49.758;6.120;2023-01-15T02:57:53;5.70;99.90
12911;DHT22;6523;49.758;6.120;2023-01-15T03:00:20;5.70;99.90
12911;DHT22;6523;49.758;6.120;2023-01-15T03:03:07;5.70;99.90
12911;DHT22;6523;49.758;6.120;2023-01-15T03:05:38;5.60;99.90
12911;DHT22;6523;49.758;6.120;2023-01-15T03:08:06;5.60;99.90
12911;DHT22;6523;49.758;6.120;2023-01-15T03:13:26;5.70;99.90
12911;DHT22;6523;49.758;6.120;2023-01-15T03:16:12;5.50;99.90
12911;DHT22;6523;49.758;6.120;2023-01-15T03:21:43;5.50;99.90
12911;DHT22;6523;49.758;6.120;2023-01-15T03:24:12;5.50;99.90
12911;DHT22;6523;49.758;6.120;2023-01-15T03:26:39;5.50;99.90
12911;DHT22;6523;49.758;6.120;2023-01-15T03:29:06;5.40;99.90
12911;DHT22;6523;49.758;6.120;2023-01-15T03:31:34;5.40;99.90
12911;DHT22;6523;49.758;6.120;2023-01-15T03:34:00;5.40;99.90
12911;DHT22;6523;49.758;6.120;2023-01-15T03:36:26;5.30;99.90
12911;DHT22;6523;49.758;6.120;2023-01-15T03:38:51;5.40;99.90
12911;DHT22;6523;49.758;6.120;2023-01-15T03:41:24;5.40;99.90
12911;DHT22;6523;49.758;6.120;2023-01-15T03:46:42;5.30;99.90
12911;DHT22;6523;49.758;6.120;2023-01-15T03:52:14;5.20;99.90
12911;DHT22;6523;49.758;6.120;2023-01-15T03:54:47;5.30;99.90
12911;DHT22;6523;49.758;6.120;2023-01-15T03:57:26;5.20;99.90
12911;DHT22;6523;49.758;6.120;2023-01-15T03:59:57;5.20;99.90
12911;DHT22;6523;49.758;6.120;2023-01-15T04:02:26;5.10;99.90
12911;DHT22;6523;49.758;6.120;2023-01-15T04:04:53;5.10;99.90
12911;DHT22;6523;49.758;6.120;2023-01-15T04:07:21;5.20;99.90
12911;DHT22;6523;49.758;6.120;2023-01-15T04:09:47;5.10;99.90
12911;DHT22;6523;49.758;6.120;2023-01-15T04:12:12;5.00;99.90
12911;DHT22;6523;49.758;6.120;2023-01-15T04:14:38;5.00;99.90
12911;DHT22;6523;49.758;6.120;2023-01-15T04:17:04;4.90;99.90
12911;DHT22;6523;49.758;6.120;2023-01-15T04:19:29;4.90;99.90
12911;DHT22;6523;49.758;6.120;2023-01-15T04:21:55;4.80;99.90
12911;DHT22;6523;49.758;6.120;2023-01-15T04:24:20;4.90;99.90
12911;DHT22;6523;49.758;6.120;2023-01-15T04:26:46;4.80;99.90
12911;DHT22;6523;49.758;6.120;2023-01-15T04:29:12;4.80;99.90
12911;DHT22;6523;49.758;6.120;2023-01-15T04:31:37;4.80;99.90
12911;DHT22;6523;49.758;6.120;2023-01-15T04:34:03;4.70;99.90
12911;DHT22;6523;49.758;6.120;2023-01-15T04:36:29;4.70;99.90
12911;DHT22;6523;49.758;6.120;2023-01-15T04:38:55;4.70;99.90
12911;DHT22;6523;49.758;6.120;2023-01-15T04:41:22;4.70;99.90
12911;DHT22;6523;49.758;6.120;2023-01-15T04:44:06;4.70;99.90
12911;DHT22;6523;49.758;6.120;2023-01-15T04:46:52;4.70;99.90
12911;DHT22;6523;49.758;6.120;2023-01-15T04:49:17;4.70;99.90
12911;DHT22;6523;49.758;6.120;2023-01-15T04:51:43;4.80;99.90
12911;DHT22;6523;49.758;6.120;2023-01-15T04:54:12;4.70;99.90
12911;DHT22;6523;49.758;6.120;2023-01-15T04:56:41;4.60;99.90
12911;DHT22;6523;49.758;6.120;2023-01-15T04:59:07;4.60;99.90
12911;DHT22;6523;49.758;6.120;2023-01-15T05:01:33;4.50;99.90
12911;DHT22;6523;49.758;6.120;2023-01-15T05:03:59;4.50;99.90
12911;DHT22;6523;49.758;6.120;2023-01-15T05:06:25;4.40;99.90
12911;DHT22;6523;49.758;6.120;2023-01-15T05:08:51;4.40;99.90
12911;DHT22;6523;49.758;6.120;2023-01-15T05:11:17;4.40;99.90
12911;DHT22;6523;49.758;6.120;2023-01-15T05:13:42;4.40;99.90
12911;DHT22;6523;49.758;6.120;2023-01-15T05:16:20;4.30;99.90
12911;DHT22;6523;49.758;6.120;2023-01-15T05:18:46;4.30;99.90
12911;DHT22;6523;49.758;6.120;2023-01-15T05:21:16;4.20;99.90
12911;DHT22;6523;49.758;6.120;2023-01-15T05:23:43;4.20;99.90
12911;DHT22;6523;49.758;6.120;2023-01-15T05:26:08;4.20;99.90
12911;DHT22;6523;49.758;6.120;2023-01-15T05:28:34;4.20;99.90
12911;DHT22;6523;49.758;6.120;2023-01-15T05:31:05;4.20;99.90
12911;DHT22;6523;49.758;6.120;2023-01-15T05:33:31;4.20;99.90
12911;DHT22;6523;49.758;6.120;2023-01-15T05:36:01;4.20;99.90
12911;DHT22;6523;49.758;6.120;2023-01-15T05:38:26;4.20;99.90
12911;DHT22;6523;49.758;6.120;2023-01-15T05:40:52;4.20;99.90
12911;DHT22;6523;49.758;6.120;2023-01-15T05:43:18;4.20;99.90
12911;DHT22;6523;49.758;6.120;2023-01-15T05:45:43;4.30;99.90
12911;DHT22;6523;49.758;6.120;2023-01-15T05:48:09;4.30;99.90
12911;DHT22;6523;49.758;6.120;2023-01-15T05:50:34;4.30;99.90
12911;DHT22;6523;49.758;6.120;2023-01-15T05:53:00;4.30;99.90
12911;DHT22;6523;49.758;6.120;2023-01-15T05:55:25;4.30;99.90
12911;DHT22;6523;49.758;6.120;2023-01-15T05:57:51;4.30;99.90
12911;DHT22;6523;49.758;6.120;2023-01-15T06:00:17;4.30;99.90
12911;DHT22;6523;49.758;6.120;2023-01-15T06:02:42;4.30;99.90
12911;DHT22;6523;49.758;6.120;2023-01-15T06:05:08;4.30;99.90
12911;DHT22;6523;49.758;6.120;2023-01-15T06:07:34;4.30;99.90
12911;DHT22;6523;49.758;6.120;2023-01-15T06:09:59;4.30;99.90
12911;DHT22;6523;49.758;6.120;2023-01-15T06:12:25;4.20;99.90
12911;DHT22;6523;49.758;6.120;2023-01-15T06:14:50;4.20;99.90
12911;DHT22;6523;49.758;6.120;2023-01-15T06:17:16;4.20;99.90
12911;DHT22;6523;49.758;6.120;2023-01-15T06:19:41;4.20;99.90
12911;DHT22;6523;49.758;6.120;2023-01-15T06:22:07;4.20;99.90
12911;DHT22;6523;49.758;6.120;2023-01-15T06:24:32;4.20;99.90
12911;DHT22;6523;49.758;6.120;2023-01-15T06:26:58;4.20;99.90
12911;DHT22;6523;49.758;6.120;2023-01-15T06:29:23;4.20;99.90
12911;DHT22;6523;49.758;6.120;2023-01-15T06:31:49;4.20;99.90
12911;DHT22;6523;49.758;6.120;2023-01-15T06:34:14;4.20;99.90
12911;DHT22;6523;49.758;6.120;2023-01-15T06:36:40;4.20;99.90
12911;DHT22;6523;49.758;6.120;2023-01-15T06:39:05;4.20;99.90
12911;DHT22;6523;49.758;6.120;2023-01-15T06:41:31;4.10;99.90
12911;DHT22;6523;49.758;6.120;2023-01-15T06:44:16;4.20;99.90
12911;DHT22;6523;49.758;6.120;2023-01-15T06:47:21;4.20;99.90
12911;DHT22;6523;49.758;6.120;2023-01-15T06:49:52;4.10;99.90
12911;DHT22;6523;49.758;6.120;2023-01-15T06:52:18;4.20;99.90
12911;DHT22;6523;49.758;6.120;2023-01-15T06:54:44;4.20;99.90
12911;DHT22;6523;49.758;6.120;2023-01-15T06:57:09;4.10;99.90
12911;DHT22;6523;49.758;6.120;2023-01-15T06:59:35;4.20;99.90
12911;DHT22;6523;49.758;6.120;2023-01-15T07:02:01;4.20;99.90
12911;DHT22;6523;49.758;6.120;2023-01-15T07:04:26;4.20;99.90
12911;DHT22;6523;49.758;6.120;2023-01-15T07:06:52;4.20;99.90
12911;DHT22;6523;49.758;6.120;2023-01-15T07:09:17;4.10;99.90
12911;DHT22;6523;49.758;6.120;2023-01-15T07:11:43;3.80;99.90
12911;DHT22;6523;49.758;6.120;2023-01-15T07:14:20;3.60;99.90
12911;DHT22;6523;49.758;6.120;2023-01-15T07:16:46;3.50;99.90
12911;DHT22;6523;49.758;6.120;2023-01-15T07:19:12;3.50;99.90
12911;DHT22;6523;49.758;6.120;2023-01-15T07:21:37;3.50;99.90
12911;DHT22;6523;49.758;6.120;2023-01-15T07:24:04;3.50;99.90
12911;DHT22;6523;49.758;6.120;2023-01-15T07:26:29;3.50;99.90
12911;DHT22;6523;49.758;6.120;2023-01-15T07:28:55;3.60;99.90
12911;DHT22;6523;49.758;6.120;2023-01-15T07:31:20;3.60;99.90
12911;DHT22;6523;49.758;6.120;2023-01-15T07:33:46;3.60;99.90
12911;DHT22;6523;49.758;6.120;2023-01-15T07:36:12;3.60;99.90
12911;DHT22;6523;49.758;6.120;2023-01-15T07:38:37;3.60;99.90
12911;DHT22;6523;49.758;6.120;2023-01-15T07:41:03;3.50;99.90
12911;DHT22;6523;49.758;6.120;2023-01-15T07:43:47;3.50;99.90
12911;DHT22;6523;49.758;6.120;2023-01-15T07:46:32;3.40;99.90
12911;DHT22;6523;49.758;6.120;2023-01-15T07:49:16;3.30;99.90
12911;DHT22;6523;49.758;6.120;2023-01-15T07:52:00;3.30;99.90
12911;DHT22;6523;49.758;6.120;2023-01-15T07:54:26;3.30;99.90
12911;DHT22;6523;49.758;6.120;2023-01-15T07:56:54;3.20;99.90
12911;DHT22;6523;49.758;6.120;2023-01-15T07:59:20;3.20;99.90
12911;DHT22;6523;49.758;6.120;2023-01-15T08:01:45;3.10;99.90
12911;DHT22;6523;49.758;6.120;2023-01-15T08:04:11;3.00;99.90
12911;DHT22;6523;49.758;6.120;2023-01-15T08:06:37;2.90;99.90
12911;DHT22;6523;49.758;6.120;2023-01-15T08:09:03;2.80;99.90
12911;DHT22;6523;49.758;6.120;2023-01-15T08:11:28;2.70;99.90
12911;DHT22;6523;49.758;6.120;2023-01-15T08:14:13;2.60;99.90
12911;DHT22;6523;49.758;6.120;2023-01-15T08:16:57;2.50;99.90
12911;DHT22;6523;49.758;6.120;2023-01-15T08:19:23;2.50;99.90
12911;DHT22;6523;49.758;6.120;2023-01-15T08:21:57;2.40;99.90
12911;DHT22;6523;49.758;6.120;2023-01-15T08:24:23;2.30;99.90
12911;DHT22;6523;49.758;6.120;2023-01-15T08:26:49;2.30;99.90
12911;DHT22;6523;49.758;6.120;2023-01-15T08:29:14;2.40;99.90
12911;DHT22;6523;49.758;6.120;2023-01-15T08:31:40;2.40;99.90
12911;DHT22;6523;49.758;6.120;2023-01-15T08:34:06;2.50;99.90
12911;DHT22;6523;49.758;6.120;2023-01-15T08:36:32;2.60;99.90
12911;DHT22;6523;49.758;6.120;2023-01-15T08:38:57;2.70;99.90
12911;DHT22;6523;49.758;6.120;2023-01-15T08:41:23;2.80;99.90
12911;DHT22;6523;49.758;6.120;2023-01-15T08:43:48;3.00;99.90
12911;DHT22;6523;49.758;6.120;2023-01-15T08:46:14;2.90;99.90
12911;DHT22;6523;49.758;6.120;2023-01-15T08:48:40;2.90;99.90
12911;DHT22;6523;49.758;6.120;2023-01-15T08:51:07;3.00;99.90
12911;DHT22;6523;49.758;6.120;2023-01-15T08:53:40;3.00;99.90
12911;DHT22;6523;49.758;6.120;2023-01-15T08:56:13;3.10;99.90
12911;DHT22;6523;49.758;6.120;2023-01-15T08:58:39;3.30;99.90
12911;DHT22;6523;49.758;6.120;2023-01-15T09:01:05;3.30;99.90
12911;DHT22;6523;49.758;6.120;2023-01-15T09:03:32;3.40;99.90
12911;DHT22;6523;49.758;6.120;2023-01-15T09:05:58;3.30;99.90
12911;DHT22;6523;49.758;6.120;2023-01-15T09:08:25;3.30;99.90
12911;DHT22;6523;49.758;6.120;2023-01-15T09:10:55;3.30;99.90
12911;DHT22;6523;49.758;6.120;2023-01-15T09:13:20;3.40;99.90
12911;DHT22;6523;49.758;6.120;2023-01-15T09:15:46;3.40;99.90
12911;DHT22;6523;49.758;6.120;2023-01-15T09:18:11;3.50;99.90
12911;DHT22;6523;49.758;6.120;2023-01-15T09:20:39;3.50;99.90
12911;DHT22;6523;49.758;6.120;2023-01-15T09:23:05;3.60;99.90
12911;DHT22;6523;49.758;6.120;2023-01-15T09:25:30;3.60;99.90
12911;DHT22;6523;49.758;6.120;2023-01-15T09:27:56;3.60;99.90
12911;DHT22;6523;49.758;6.120;2023-01-15T09:30:21;3.60;99.90
12911;DHT22;6523;49.758;6.120;2023-01-15T09:32:47;3.70;99.90
12911;DHT22;6523;49.758;6.120;2023-01-15T09:35:14;3.70;99.90
12911;DHT22;6523;49.758;6.120;2023-01-15T09:37:39;3.70;99.90
12911;DHT22;6523;49.758;6.120;2023-01-15T09:40:06;3.70;99.90
12911;DHT22;6523;49.758;6.120;2023-01-15T09:42:39;3.70;99.90
12911;DHT22;6523;49.758;6.120;2023-01-15T09:45:21;3.80;99.90
12911;DHT22;6523;49.758;6.120;2023-01-15T09:48:09;3.90;99.90
12911;DHT22;6523;49.758;6.120;2023-01-15T09:50:43;4.00;99.90
12911;DHT22;6523;49.758;6.120;2023-01-15T09:56:34;4.30;99.90
12911;DHT22;6523;49.758;6.120;2023-01-15T09:59:05;4.40;99.90
12911;DHT22;6523;49.758;6.120;2023-01-15T10:01:35;4.40;99.90
12911;DHT22;6523;49.758;6.120;2023-01-15T10:04:12;4.40;99.90
12911;DHT22;6523;49.758;6.120;2023-01-15T10:07:07;4.40;99.90
12911;DHT22;6523;49.758;6.120;2023-01-15T10:09:38;4.50;99.90
12911;DHT22;6523;49.758;6.120;2023-01-15T10:12:20;4.40;99.90
12911;DHT22;6523;49.758;6.120;2023-01-15T10:15:05;4.40;99.90
12911;DHT22;6523;49.758;6.120;2023-01-15T10:17:37;4.30;99.90
12911;DHT22;6523;49.758;6.120;2023-01-15T10:20:43;4.40;99.90
12911;DHT22;6523;49.758;6.120;2023-01-15T10:23:33;4.50;99.90
12911;DHT22;6523;49.758;6.120;2023-01-15T10:28:57;4.60;99.90
12911;DHT22;6523;49.758;6.120;2023-01-15T10:31:35;4.50;99.90
12911;DHT22;6523;49.758;6.120;2023-01-15T10:37:07;4.50;99.90
12911;DHT22;6523;49.758;6.120;2023-01-15T10:39:51;4.40;99.90
12911;DHT22;6523;49.758;6.120;2023-01-15T10:45:00;4.70;99.90
12911;DHT22;6523;49.758;6.120;2023-01-15T10:47:33;4.90;99.90
12911;DHT22;6523;49.758;6.120;2023-01-15T10:50:02;5.20;99.90
12911;DHT22;6523;49.758;6.120;2023-01-15T10:52:32;5.30;99.90
12911;DHT22;6523;49.758;6.120;2023-01-15T10:55:19;5.30;99.90
12911;DHT22;6523;49.758;6.120;2023-01-15T11:00:23;5.40;99.90
12911;DHT22;6523;49.758;6.120;2023-01-15T11:03:02;5.40;99.90
12911;DHT22;6523;49.758;6.120;2023-01-15T11:05:32;5.50;99.90
12911;DHT22;6523;49.758;6.120;2023-01-15T11:08:00;5.70;99.90
12911;DHT22;6523;49.758;6.120;2023-01-15T11:10:27;5.50;99.90
12911;DHT22;6523;49.758;6.120;2023-01-15T11:13:19;5.50;99.90
12911;DHT22;6523;49.758;6.120;2023-01-15T11:16:01;5.40;99.90
12911;DHT22;6523;49.758;6.120;2023-01-15T11:18:46;5.60;99.90
12911;DHT22;6523;49.758;6.120;2023-01-15T11:21:30;5.60;99.90
12911;DHT22;6523;49.758;6.120;2023-01-15T11:23:57;6.00;99.90
12911;DHT22;6523;49.758;6.120;2023-01-15T11:26:31;6.20;99.90
12911;DHT22;6523;49.758;6.120;2023-01-15T11:28:59;6.10;99.90
12911;DHT22;6523;49.758;6.120;2023-01-15T11:31:36;6.10;99.90
12911;DHT22;6523;49.758;6.120;2023-01-15T11:34:04;6.10;99.90
12911;DHT22;6523;49.758;6.120;2023-01-15T11:36:31;6.00;99.90
12911;DHT22;6523;49.758;6.120;2023-01-15T11:38:58;5.90;99.90
12911;DHT22;6523;49.758;6.120;2023-01-15T11:41:32;5.80;99.90
12911;DHT22;6523;49.758;6.120;2023-01-15T11:44:19;5.90;99.90
12911;DHT22;6523;49.758;6.120;2023-01-15T11:47:10;5.90;99.90
12911;DHT22;6523;49.758;6.120;2023-01-15T11:49:54;6.00;99.90
12911;DHT22;6523;49.758;6.120;2023-01-15T11:52:51;6.10;99.90
12911;DHT22;6523;49.758;6.120;2023-01-15T11:55:21;6.10;99.90
12911;DHT22;6523;49.758;6.120;2023-01-15T11:57:48;6.00;99.90
12911;DHT22;6523;49.758;6.120;2023-01-15T12:00:26;5.90;99.90
12911;DHT22;6523;49.758;6.120;2023-01-15T12:03:10;5.90;99.90
12911;DHT22;6523;49.758;6.120;2023-01-15T12:05:52;5.90;99.90
12911;DHT22;6523;49.758;6.120;2023-01-15T12:16:41;5.80;99.90
12911;DHT22;6523;49.758;6.120;2023-01-15T12:19:24;5.90;99.90
12911;DHT22;6523;49.758;6.120;2023-01-15T12:24:51;6.10;99.90
12911;DHT22;6523;49.758;6.120;2023-01-15T12:32:41;6.30;99.90
12911;DHT22;6523;49.758;6.120;2023-01-15T12:38:07;6.20;99.90
12911;DHT22;6523;49.758;6.120;2023-01-15T12:43:24;6.20;99.90
12911;DHT22;6523;49.758;6.120;2023-01-15T12:46:13;6.20;99.90
12911;DHT22;6523;49.758;6.120;2023-01-15T12:48:49;6.10;99.90
12911;DHT22;6523;49.758;6.120;2023-01-15T12:51:24;6.00;99.90
12911;DHT22;6523;49.758;6.120;2023-01-15T12:54:12;6.00;99.90
12911;DHT22;6523;49.758;6.120;2023-01-15T12:57:08;6.00;99.90
12911;DHT22;6523;49.758;6.120;2023-01-15T12:59:53;6.00;99.90
12911;DHT22;6523;49.758;6.120;2023-01-15T13:02:27;6.00;99.90
12911;DHT22;6523;49.758;6.120;2023-01-15T13:07:42;6.00;99.90
12911;DHT22;6523;49.758;6.120;2023-01-15T13:10:27;5.90;99.90
12911;DHT22;6523;49.758;6.120;2023-01-15T13:12:58;5.90;99.90
12911;DHT22;6523;49.758;6.120;2023-01-15T13:15:29;5.90;99.90
12911;DHT22;6523;49.758;6.120;2023-01-15T13:23:42;5.80;99.90
12911;DHT22;6523;49.758;6.120;2023-01-15T13:32:08;5.50;99.90
12911;DHT22;6523;49.758;6.120;2023-01-15T13:39:44;5.20;99.90
12911;DHT22;6523;49.758;6.120;2023-01-15T13:42:22;5.00;99.90
12911;DHT22;6523;49.758;6.120;2023-01-15T13:45:02;5.00;99.90
12911;DHT22;6523;49.758;6.120;2023-01-15T13:47:30;5.10;99.90
12911;DHT22;6523;49.758;6.120;2023-01-15T13:50:14;5.20;99.90
12911;DHT22;6523;49.758;6.120;2023-01-15T13:52:40;5.30;99.90
12911;DHT22;6523;49.758;6.120;2023-01-15T13:57:44;5.30;99.90
12911;DHT22;6523;49.758;6.120;2023-01-15T14:00:35;5.30;99.90
12911;DHT22;6523;49.758;6.120;2023-01-15T14:03:26;5.40;99.90
12911;DHT22;6523;49.758;6.120;2023-01-15T14:05:54;5.40;99.90
12911;DHT22;6523;49.758;6.120;2023-01-15T14:08:24;5.40;99.90
12911;DHT22;6523;49.758;6.120;2023-01-15T14:10:50;5.30;99.90
12911;DHT22;6523;49.758;6.120;2023-01-15T14:13:40;5.30;99.90
12911;DHT22;6523;49.758;6.120;2023-01-15T14:19:15;5.50;99.90
12911;DHT22;6523;49.758;6.120;2023-01-15T14:35:36;5.50;99.90
12911;DHT22;6523;49.758;6.120;2023-01-15T14:38:12;5.50;99.90
12911;DHT22;6523;49.758;6.120;2023-01-15T14:40:52;5.50;99.90
12911;DHT22;6523;49.758;6.120;2023-01-15T14:43:20;5.50;99.90
12911;DHT22;6523;49.758;6.120;2023-01-15T14:45:47;5.50;99.90
12911;DHT22;6523;49.758;6.120;2023-01-15T14:48:33;5.40;99.90
12911;DHT22;6523;49.758;6.120;2023-01-15T14:51:09;5.40;99.90
12911;DHT22;6523;49.758;6.120;2023-01-15T14:53:44;5.50;99.90
12911;DHT22;6523;49.758;6.120;2023-01-15T14:58:49;5.50;99.90
12911;DHT22;6523;49.758;6.120;2023-01-15T15:02:08;5.40;99.90
12911;DHT22;6523;49.758;6.120;2023-01-15T15:04:37;5.40;99.90
12911;DHT22;6523;49.758;6.120;2023-01-15T15:07:09;5.30;99.90
12911;DHT22;6523;49.758;6.120;2023-01-15T15:14:49;5.40;99.90
12911;DHT22;6523;49.758;6.120;2023-01-15T15:17:24;5.40;99.90
12911;DHT22;6523;49.758;6.120;2023-01-15T15:20:01;5.40;99.90
12911;DHT22;6523;49.758;6.120;2023-01-15T15:22:33;5.40;99.90
12911;DHT22;6523;49.758;6.120;2023-01-15T15:25:07;5.40;99.90
12911;DHT22;6523;49.758;6.120;2023-01-15T15:27:34;5.40;99.90
12911;DHT22;6523;49.758;6.120;2023-01-15T15:30:06;5.30;99.90
12911;DHT22;6523;49.758;6.120;2023-01-15T15:32:33;5.30;99.90
12911;DHT22;6523;49.758;6.120;2023-01-15T15:35:05;5.30;99.90
12911;DHT22;6523;49.758;6.120;2023-01-15T15:37:43;5.30;99.90
12911;DHT22;6523;49.758;6.120;2023-01-15T15:40:16;5.30;99.90
12911;DHT22;6523;49.758;6.120;2023-01-15T15:43:10;5.40;99.90
12911;DHT22;6523;49.758;6.120;2023-01-15T15:45:56;5.40;99.90
12911;DHT22;6523;49.758;6.120;2023-01-15T15:48:41;5.20;99.90
12911;DHT22;6523;49.758;6.120;2023-01-15T15:51:33;5.20;99.90
12911;DHT22;6523;49.758;6.120;2023-01-15T15:54:14;5.30;99.90
12911;DHT22;6523;49.758;6.120;2023-01-15T15:57:11;5.20;99.90
12911;DHT22;6523;49.758;6.120;2023-01-15T15:59:46;5.20;99.90
12911;DHT22;6523;49.758;6.120;2023-01-15T16:02:33;5.30;99.90
12911;DHT22;6523;49.758;6.120;2023-01-15T16:07:41;5.20;99.90
12911;DHT22;6523;49.758;6.120;2023-01-15T16:10:18;5.20;99.90
12911;DHT22;6523;49.758;6.120;2023-01-15T16:12:49;5.20;99.90
12911;DHT22;6523;49.758;6.120;2023-01-15T16:15:19;5.10;99.90
12911;DHT22;6523;49.758;6.120;2023-01-15T16:17:47;5.10;99.90
12911;DHT22;6523;49.758;6.120;2023-01-15T16:20:15;5.10;99.90
12911;DHT22;6523;49.758;6.120;2023-01-15T16:23:02;5.00;99.90
12911;DHT22;6523;49.758;6.120;2023-01-15T16:25:40;5.00;99.90
12911;DHT22;6523;49.758;6.120;2023-01-15T16:28:23;5.00;99.90
12911;DHT22;6523;49.758;6.120;2023-01-15T16:30:58;5.00;99.90
12911;DHT22;6523;49.758;6.120;2023-01-15T16:33:24;5.00;99.90
12911;DHT22;6523;49.758;6.120;2023-01-15T16:35:58;5.00;99.90
12911;DHT22;6523;49.758;6.120;2023-01-15T16:38:24;5.10;99.90
12911;DHT22;6523;49.758;6.120;2023-01-15T16:40:51;5.10;99.90
12911;DHT22;6523;49.758;6.120;2023-01-15T16:43:22;5.10;99.90
12911;DHT22;6523;49.758;6.120;2023-01-15T16:50:48;4.90;99.90
12911;DHT22;6523;49.758;6.120;2023-01-15T16:53:30;4.90;99.90
12911;DHT22;6523;49.758;6.120;2023-01-15T16:55:57;5.00;99.90
12911;DHT22;6523;49.758;6.120;2023-01-15T16:58:40;5.00;99.90
12911;DHT22;6523;49.758;6.120;2023-01-15T17:01:29;5.00;99.90
12911;DHT22;6523;49.758;6.120;2023-01-15T17:03:56;5.00;99.90
12911;DHT22;6523;49.758;6.120;2023-01-15T17:06:25;5.10;99.90
12911;DHT22;6523;49.758;6.120;2023-01-15T17:08:52;5.10;99.90
12911;DHT22;6523;49.758;6.120;2023-01-15T17:11:29;5.00;99.90
12911;DHT22;6523;49.758;6.120;2023-01-15T17:14:24;5.00;99.90
12911;DHT22;6523;49.758;6.120;2023-01-15T17:19:45;4.90;99.90
12911;DHT22;6523;49.758;6.120;2023-01-15T17:22:30;5.00;99.90
12911;DHT22;6523;49.758;6.120;2023-01-15T17:24:59;5.00;99.90
12911;DHT22;6523;49.758;6.120;2023-01-15T17:27:27;4.90;99.90
12911;DHT22;6523;49.758;6.120;2023-01-15T17:29:53;4.80;99.90
12911;DHT22;6523;49.758;6.120;2023-01-15T17:32:24;4.80;99.90
12911;DHT22;6523;49.758;6.120;2023-01-15T17:34:51;4.70;99.90
12911;DHT22;6523;49.758;6.120;2023-01-15T17:37:17;4.70;99.90
12911;DHT22;6523;49.758;6.120;2023-01-15T17:39:43;4.80;99.90
12911;DHT22;6523;49.758;6.120;2023-01-15T17:42:16;4.80;99.90
12911;DHT22;6523;49.758;6.120;2023-01-15T17:44:42;5.00;99.90
12911;DHT22;6523;49.758;6.120;2023-01-15T17:47:08;5.00;99.90
12911;DHT22;6523;49.758;6.120;2023-01-15T17:49:34;5.00;99.90
12911;DHT22;6523;49.758;6.120;2023-01-15T17:52:00;4.90;99.90
12911;DHT22;6523;49.758;6.120;2023-01-15T17:54:26;4.90;99.90
12911;DHT22;6523;49.758;6.120;2023-01-15T17:57:10;4.90;99.90
12911;DHT22;6523;49.758;6.120;2023-01-15T17:59:55;4.90;99.90
12911;DHT22;6523;49.758;6.120;2023-01-15T18:02:39;5.00;99.90
12911;DHT22;6523;49.758;6.120;2023-01-15T18:05:24;5.00;99.90
12911;DHT22;6523;49.758;6.120;2023-01-15T18:07:50;5.00;99.90
12911;DHT22;6523;49.758;6.120;2023-01-15T18:10:17;4.90;99.90
12911;DHT22;6523;49.758;6.120;2023-01-15T18:12:45;4.90;99.90
12911;DHT22;6523;49.758;6.120;2023-01-15T18:15:11;4.80;99.90
12911;DHT22;6523;49.758;6.120;2023-01-15T18:17:36;4.70;99.90